首页
METAR-TAF:

METAR-TAF

机场 :

塞萨洛尼基马其顿国际机场

塞萨洛尼基, 希腊

纬度: 40-31N, 经度: 022-58E, 海拔: 8米

当前天气观测

该预报发布于17分钟前的04:20 UTC
风速3节,风向
温度 17°C
湿度 77%
气压 1011 hPa
能见度10公里或以上
1500米以下无云,无积雨云

METAR: LGTS 050420Z 17003KT CAVOK 17/13 Q1011 NOSIG

时间: 07:37 (04:37 UTC)

预报

该预报发布于5小时和37分钟前的23:00 UTC
预报有效从05日的 00点(UTC)到 05日的 24点(UTC)
风速3节,风向多变
能见度10公里或以上
少量云层高于3000英尺
成为
从 05日的 10点(UTC)到 05日的 12点(UTC)
风速15节,风向南转南东
成为
从 05日的 18点(UTC)到 05日的 20点(UTC)
风速5节,风向
几率 30% :
短暂存在
从 05日的 20点(UTC)到 05日的 24点(UTC)
能見度: 7000
少量云层高于1000英尺
散云层高于2500英尺

TAF: LGTS 042300Z 0500/0524 VRB03KT 9999 FEW030 BECMG 0510/0512 16015KT BECMG 0518/0520 10005KT PROB30 TEMPO 0520/0524 7000 RA FEW010 SCT025

超过4000个机场的气象观测和天气预报(METAR&TAF报告)。

可查询的气象台以黄色和红色小点在地图上表示。

将鼠标移到小点上方,可查看气象台名称。

然后点击查看天气观测和预报。

如需切换地图:点击带黑十字的绿色按钮放大地图;点击带横线的绿色按钮缩小地图;或者点击绿色箭头查看邻近地区的地图。


METAR-TAF: